WZZ6903 LHBP-LGAV
Flight info
| Callsign | WZZ6903 |
|---|---|
| Flight time | 1h 33m |
| Altitude | 37000 |
| Route | FAHAZ DCT KEROP DCT XENIT DCT IBISI DCT MAKED DCT BAMOS UL617 SKP UM749 ROPOX |
| Aircraft | A321/M-SDE1E2E3FGIJ1J4RWXY/LB1 |
Departure
| Time | 2026-05-04 11:34 |
|---|---|
| Airport | Budapest Liszt Ferenc International Airport (LHBP) |
Arrival
| Time | 2026-05-04 13:07 |
|---|---|
| Airport | Athens Eleftherios Venizelos International Airport (LGAV) |
| Time | Latitude | Longitude | Altitude | Speed | Heading |
|---|---|---|---|---|---|
| 2026-05-04 11:20 | 47.43365 | 19.25842 | 458 ft | 0 kts | 222° |
| 2026-05-04 11:22 | 47.43365 | 19.25843 | 457 ft | 0 kts | 222° |
| 2026-05-04 11:27 | 47.43416 | 19.25917 | 453 ft | 4 kts | 262° |
| 2026-05-04 11:28 | 47.43411 | 19.25950 | 455 ft | 4 kts | 307° |
| 2026-05-04 11:28 | 47.43402 | 19.25967 | 455 ft | 1 kts | 312° |
| 2026-05-04 11:28 | 47.43401 | 19.25968 | 455 ft | 0 kts | 312° |
| 2026-05-04 11:31 | 47.43587 | 19.25721 | 457 ft | 12 kts | 17° |
| 2026-05-04 11:33 | 47.43916 | 19.26770 | 471 ft | 60 kts | 133° |
| 2026-05-04 11:33 | 47.43466 | 19.27499 | 469 ft | 130 kts | 132° |
| 2026-05-04 11:33 | 47.42742 | 19.28676 | 682 ft | 162 kts | 136° |
| 2026-05-04 11:34 | 47.42037 | 19.29954 | 1474 ft | 161 kts | 121° |
| 2026-05-04 11:34 | 47.41544 | 19.31442 | 2101 ft | 172 kts | 121° |
| 2026-05-04 11:34 | 47.40918 | 19.33093 | 2431 ft | 193 kts | 123° |
| 2026-05-04 11:34 | 47.39964 | 19.34574 | 2729 ft | 211 kts | 158° |
| 2026-05-04 11:35 | 47.38472 | 19.34982 | 3124 ft | 233 kts | 176° |
| 2026-05-04 11:35 | 47.36808 | 19.35339 | 3697 ft | 249 kts | 172° |
| 2026-05-04 11:35 | 47.35106 | 19.35772 | 4505 ft | 255 kts | 172° |
| 2026-05-04 11:35 | 47.33301 | 19.36263 | 5427 ft | 259 kts | 171° |
| 2026-05-04 11:36 | 47.31518 | 19.36770 | 6284 ft | 264 kts | 171° |
| 2026-05-04 11:36 | 47.29700 | 19.37298 | 7042 ft | 269 kts | 170° |
| 2026-05-04 11:36 | 47.27851 | 19.37845 | 7833 ft | 273 kts | 169° |
| 2026-05-04 11:36 | 47.25980 | 19.38402 | 8677 ft | 276 kts | 169° |
| 2026-05-04 11:37 | 47.24109 | 19.38958 | 9509 ft | 279 kts | 169° |
| 2026-05-04 11:37 | 47.22229 | 19.39512 | 10280 ft | 285 kts | 168° |
| 2026-05-04 11:37 | 47.20173 | 19.40120 | 10579 ft | 308 kts | 168° |
| 2026-05-04 11:37 | 47.18014 | 19.40758 | 10941 ft | 325 kts | 168° |
| 2026-05-04 11:38 | 47.15774 | 19.41421 | 11602 ft | 332 kts | 168° |
| 2026-05-04 11:38 | 47.13491 | 19.42101 | 12313 ft | 337 kts | 168° |
| 2026-05-04 11:38 | 47.11200 | 19.42785 | 13041 ft | 341 kts | 168° |
| 2026-05-04 11:38 | 47.08830 | 19.43491 | 13768 ft | 345 kts | 168° |
| 2026-05-04 11:39 | 47.06488 | 19.44186 | 14422 ft | 349 kts | 168° |
| 2026-05-04 11:39 | 47.04096 | 19.44887 | 15057 ft | 353 kts | 168° |
| 2026-05-04 11:40 | 46.89122 | 19.49287 | 18887 ft | 378 kts | 166° |
| 2026-05-04 11:41 | 46.86563 | 19.50035 | 19430 ft | 382 kts | 167° |
| 2026-05-04 11:41 | 46.83913 | 19.50804 | 19991 ft | 386 kts | 167° |
| 2026-05-04 11:41 | 46.81291 | 19.51565 | 20534 ft | 390 kts | 167° |
| 2026-05-04 11:41 | 46.78629 | 19.52342 | 21068 ft | 394 kts | 167° |
| 2026-05-04 11:42 | 46.75910 | 19.53137 | 21645 ft | 398 kts | 167° |
| 2026-05-04 11:42 | 46.73174 | 19.53937 | 22186 ft | 402 kts | 167° |
| 2026-05-04 11:42 | 46.70420 | 19.54742 | 22728 ft | 407 kts | 167° |
| 2026-05-04 11:42 | 46.67635 | 19.55552 | 23279 ft | 411 kts | 168° |
| 2026-05-04 11:43 | 46.64820 | 19.56362 | 23799 ft | 414 kts | 168° |
| 2026-05-04 11:43 | 46.61983 | 19.57172 | 24248 ft | 417 kts | 168° |
| 2026-05-04 11:43 | 46.59156 | 19.57981 | 24665 ft | 421 kts | 168° |
| 2026-05-04 11:43 | 46.56281 | 19.58810 | 25112 ft | 424 kts | 168° |
| 2026-05-04 11:44 | 46.53365 | 19.59654 | 25534 ft | 427 kts | 168° |
| 2026-05-04 11:44 | 46.50458 | 19.60493 | 25956 ft | 430 kts | 168° |
| 2026-05-04 11:44 | 46.47508 | 19.61343 | 26371 ft | 433 kts | 168° |
| 2026-05-04 11:44 | 46.44547 | 19.62198 | 26782 ft | 436 kts | 168° |
| 2026-05-04 11:45 | 46.41559 | 19.63061 | 27193 ft | 439 kts | 168° |
| 2026-05-04 11:45 | 46.38570 | 19.63918 | 27588 ft | 442 kts | 168° |
| 2026-05-04 11:45 | 46.35567 | 19.64778 | 27980 ft | 445 kts | 168° |
| 2026-05-04 11:45 | 46.32519 | 19.65651 | 28368 ft | 448 kts | 168° |
| 2026-05-04 11:46 | 46.29453 | 19.66529 | 28754 ft | 451 kts | 168° |
| 2026-05-04 11:46 | 46.26351 | 19.67414 | 29133 ft | 454 kts | 168° |
| 2026-05-04 11:46 | 46.23245 | 19.68300 | 29505 ft | 457 kts | 168° |
| 2026-05-04 11:46 | 46.20113 | 19.69204 | 29849 ft | 461 kts | 166° |
| 2026-05-04 11:47 | 46.17057 | 19.70532 | 30206 ft | 462 kts | 158° |
| 2026-05-04 11:47 | 46.14090 | 19.72356 | 30501 ft | 465 kts | 155° |
| 2026-05-04 11:47 | 46.11117 | 19.74217 | 30800 ft | 468 kts | 155° |
| 2026-05-04 11:47 | 46.08105 | 19.76094 | 31096 ft | 470 kts | 155° |
| 2026-05-04 11:48 | 46.05143 | 19.77932 | 31403 ft | 473 kts | 155° |
| 2026-05-04 11:48 | 46.02067 | 19.79838 | 31698 ft | 476 kts | 155° |
| 2026-05-04 11:48 | 45.99068 | 19.81690 | 32070 ft | 476 kts | 156° |
| 2026-05-04 11:48 | 45.96026 | 19.83563 | 32503 ft | 476 kts | 155° |
| 2026-05-04 11:49 | 45.92980 | 19.85437 | 32922 ft | 476 kts | 156° |
| 2026-05-04 11:49 | 45.89927 | 19.87314 | 33330 ft | 476 kts | 156° |
| 2026-05-04 11:49 | 45.86892 | 19.89182 | 33724 ft | 476 kts | 155° |
| 2026-05-04 11:49 | 45.83844 | 19.91062 | 34111 ft | 476 kts | 155° |
| 2026-05-04 11:50 | 45.80947 | 19.92844 | 34452 ft | 475 kts | 156° |
| 2026-05-04 11:50 | 45.77911 | 19.94707 | 34809 ft | 475 kts | 156° |
| 2026-05-04 11:50 | 45.74879 | 19.96561 | 35177 ft | 474 kts | 156° |
| 2026-05-04 11:50 | 45.71835 | 19.98417 | 35546 ft | 473 kts | 156° |
| 2026-05-04 11:51 | 45.68821 | 20.00253 | 35910 ft | 472 kts | 156° |
| 2026-05-04 11:51 | 45.65805 | 20.02094 | 36276 ft | 471 kts | 156° |
| 2026-05-04 11:51 | 45.62806 | 20.03925 | 36639 ft | 470 kts | 156° |
| 2026-05-04 11:51 | 45.59798 | 20.05762 | 37001 ft | 469 kts | 156° |
| 2026-05-04 11:52 | 45.56799 | 20.07591 | 37122 ft | 468 kts | 156° |
| 2026-05-04 11:52 | 45.50857 | 20.11198 | 37139 ft | 465 kts | 156° |
| 2026-05-04 11:53 | 45.44921 | 20.14789 | 37137 ft | 465 kts | 156° |
| 2026-05-04 11:53 | 45.38970 | 20.18376 | 37135 ft | 465 kts | 156° |
| 2026-05-04 11:55 | 45.15129 | 20.32716 | 37167 ft | 467 kts | 155° |
| 2026-05-04 11:56 | 45.09154 | 20.36290 | 37178 ft | 467 kts | 156° |
| 2026-05-04 11:56 | 45.03157 | 20.39856 | 37179 ft | 467 kts | 156° |
| 2026-05-04 11:57 | 44.97196 | 20.43392 | 37178 ft | 467 kts | 156° |
| 2026-05-04 11:57 | 44.91205 | 20.46952 | 37174 ft | 467 kts | 156° |
| 2026-05-04 11:58 | 44.85243 | 20.50488 | 37176 ft | 468 kts | 156° |
| 2026-05-04 11:58 | 44.79256 | 20.54032 | 37175 ft | 468 kts | 156° |
| 2026-05-04 11:59 | 44.74258 | 20.56973 | 37174 ft | 468 kts | 156° |
| 2026-05-04 11:59 | 44.67232 | 20.61087 | 37169 ft | 468 kts | 156° |
| 2026-05-04 12:00 | 44.61229 | 20.64608 | 37162 ft | 468 kts | 156° |
| 2026-05-04 12:00 | 44.55221 | 20.68126 | 37152 ft | 469 kts | 156° |
| 2026-05-04 12:01 | 44.49223 | 20.71636 | 37153 ft | 469 kts | 156° |
| 2026-05-04 12:02 | 44.29163 | 20.83388 | 37158 ft | 470 kts | 154° |
| 2026-05-04 12:03 | 44.23234 | 20.87281 | 37163 ft | 470 kts | 152° |
| 2026-05-04 12:03 | 44.17369 | 20.91225 | 37164 ft | 471 kts | 153° |
| 2026-05-04 12:04 | 44.11447 | 20.95106 | 37164 ft | 471 kts | 153° |
| 2026-05-04 12:04 | 44.05504 | 20.98924 | 37162 ft | 472 kts | 153° |
| 2026-05-04 12:05 | 43.99530 | 21.02761 | 37164 ft | 472 kts | 153° |
| 2026-05-04 12:05 | 43.93603 | 21.06585 | 37171 ft | 472 kts | 153° |
| 2026-05-04 12:06 | 43.87644 | 21.10414 | 37173 ft | 472 kts | 153° |
| 2026-05-04 12:06 | 43.81694 | 21.14228 | 37172 ft | 472 kts | 153° |
| 2026-05-04 12:07 | 43.75719 | 21.18050 | 37175 ft | 472 kts | 153° |
| 2026-05-04 12:07 | 43.69762 | 21.21852 | 37173 ft | 472 kts | 153° |
| 2026-05-04 12:08 | 43.63799 | 21.25654 | 37170 ft | 472 kts | 153° |
| 2026-05-04 12:08 | 43.57862 | 21.29436 | 37170 ft | 473 kts | 153° |
| 2026-05-04 12:09 | 43.51911 | 21.33214 | 37169 ft | 473 kts | 153° |
| 2026-05-04 12:09 | 43.45931 | 21.36988 | 37170 ft | 472 kts | 153° |
| 2026-05-04 12:10 | 43.39958 | 21.40751 | 37168 ft | 472 kts | 153° |
| 2026-05-04 12:10 | 43.33978 | 21.44519 | 37170 ft | 472 kts | 153° |
| 2026-05-04 12:11 | 43.28012 | 21.48271 | 37166 ft | 472 kts | 153° |
| 2026-05-04 12:11 | 43.22080 | 21.51999 | 37167 ft | 472 kts | 153° |
| 2026-05-04 12:12 | 43.16113 | 21.55746 | 37163 ft | 472 kts | 153° |
| 2026-05-04 12:12 | 43.10144 | 21.59466 | 37163 ft | 472 kts | 153° |
| 2026-05-04 12:14 | 42.85867 | 21.73044 | 37158 ft | 474 kts | 159° |
| 2026-05-04 12:15 | 42.79604 | 21.75969 | 37156 ft | 474 kts | 159° |
| 2026-05-04 12:15 | 42.73372 | 21.78881 | 37149 ft | 475 kts | 159° |
| 2026-05-04 12:16 | 42.67158 | 21.81780 | 37148 ft | 475 kts | 160° |
| 2026-05-04 12:16 | 42.60908 | 21.84682 | 37153 ft | 475 kts | 160° |
| 2026-05-04 12:17 | 42.54632 | 21.87582 | 37148 ft | 476 kts | 160° |
| 2026-05-04 12:17 | 42.48364 | 21.90475 | 37147 ft | 476 kts | 160° |
| 2026-05-04 12:18 | 42.42138 | 21.93348 | 37143 ft | 476 kts | 160° |
| 2026-05-04 12:18 | 42.35874 | 21.96242 | 37143 ft | 476 kts | 160° |
| 2026-05-04 12:19 | 42.29603 | 21.99126 | 37142 ft | 477 kts | 160° |
| 2026-05-04 12:19 | 42.23316 | 22.01998 | 37133 ft | 477 kts | 160° |
| 2026-05-04 12:20 | 42.17074 | 22.04850 | 37126 ft | 476 kts | 160° |
| 2026-05-04 12:20 | 42.10786 | 22.07735 | 37130 ft | 477 kts | 160° |
| 2026-05-04 12:21 | 42.04511 | 22.10598 | 37148 ft | 477 kts | 160° |
| 2026-05-04 12:21 | 41.98231 | 22.13452 | 37131 ft | 476 kts | 160° |
| 2026-05-04 12:22 | 41.91947 | 22.16293 | 37134 ft | 476 kts | 160° |
| 2026-05-04 12:22 | 41.85674 | 22.19133 | 37136 ft | 476 kts | 160° |
| 2026-05-04 12:23 | 41.79430 | 22.21960 | 37138 ft | 476 kts | 160° |
| 2026-05-04 12:23 | 41.73135 | 22.24803 | 37134 ft | 477 kts | 160° |
| 2026-05-04 12:24 | 41.66857 | 22.27628 | 37139 ft | 477 kts | 160° |
| 2026-05-04 12:24 | 41.60616 | 22.30424 | 37136 ft | 477 kts | 160° |
| 2026-05-04 12:25 | 41.54327 | 22.33240 | 37138 ft | 477 kts | 160° |
| 2026-05-04 12:25 | 41.48034 | 22.36057 | 37144 ft | 477 kts | 160° |
| 2026-05-04 12:26 | 41.41742 | 22.38870 | 37135 ft | 477 kts | 160° |
| 2026-05-04 12:26 | 41.35494 | 22.41658 | 37139 ft | 477 kts | 160° |
| 2026-05-04 12:27 | 41.29212 | 22.44451 | 37142 ft | 477 kts | 160° |
| 2026-05-04 12:27 | 41.22911 | 22.47246 | 37140 ft | 477 kts | 161° |
| 2026-05-04 12:28 | 41.16615 | 22.50034 | 37139 ft | 477 kts | 161° |
| 2026-05-04 12:28 | 41.10446 | 22.53109 | 37140 ft | 476 kts | 155° |
| 2026-05-04 12:29 | 41.04372 | 22.56685 | 37139 ft | 476 kts | 155° |
| 2026-05-04 12:29 | 40.98352 | 22.60195 | 37143 ft | 476 kts | 155° |
| 2026-05-04 12:30 | 40.92285 | 22.63729 | 37142 ft | 476 kts | 155° |
| 2026-05-04 12:30 | 40.86229 | 22.67258 | 37140 ft | 476 kts | 155° |
| 2026-05-04 12:31 | 40.80147 | 22.70790 | 37144 ft | 476 kts | 155° |
| 2026-05-04 12:31 | 40.74116 | 22.74280 | 37149 ft | 476 kts | 155° |
| 2026-05-04 12:32 | 40.65012 | 22.79535 | 37153 ft | 477 kts | 155° |
| 2026-05-04 12:33 | 40.58926 | 22.83047 | 37158 ft | 477 kts | 155° |
| 2026-05-04 12:33 | 40.52854 | 22.86541 | 37158 ft | 477 kts | 155° |
| 2026-05-04 12:34 | 40.46781 | 22.90040 | 37160 ft | 477 kts | 155° |
| 2026-05-04 12:34 | 40.40742 | 22.93506 | 37159 ft | 477 kts | 155° |
| 2026-05-04 12:35 | 40.34659 | 22.96983 | 37155 ft | 477 kts | 155° |
| 2026-05-04 12:35 | 40.28586 | 23.00451 | 37157 ft | 477 kts | 156° |
| 2026-05-04 12:36 | 40.22529 | 23.03900 | 37154 ft | 477 kts | 156° |
| 2026-05-04 12:36 | 40.16442 | 23.07359 | 37149 ft | 477 kts | 156° |
| 2026-05-04 12:37 | 40.10368 | 23.10813 | 37149 ft | 477 kts | 156° |
| 2026-05-04 12:37 | 40.04273 | 23.14265 | 37149 ft | 477 kts | 156° |
| 2026-05-04 12:38 | 39.98175 | 23.17713 | 37147 ft | 477 kts | 156° |
| 2026-05-04 12:38 | 39.92085 | 23.21148 | 37146 ft | 477 kts | 156° |
| 2026-05-04 12:39 | 39.85979 | 23.24584 | 37146 ft | 477 kts | 156° |
| 2026-05-04 12:39 | 39.79917 | 23.27988 | 37147 ft | 478 kts | 156° |
| 2026-05-04 12:40 | 39.73785 | 23.31438 | 37153 ft | 478 kts | 156° |
| 2026-05-04 12:40 | 39.67713 | 23.34840 | 37151 ft | 478 kts | 156° |
| 2026-05-04 12:41 | 39.61608 | 23.38254 | 37149 ft | 478 kts | 156° |
| 2026-05-04 12:41 | 39.55491 | 23.41672 | 37156 ft | 479 kts | 156° |
| 2026-05-04 12:42 | 39.49357 | 23.45089 | 37154 ft | 479 kts | 156° |
| 2026-05-04 12:42 | 39.43263 | 23.48470 | 37145 ft | 480 kts | 156° |
| 2026-05-04 12:42 | 39.40197 | 23.50175 | 36891 ft | 480 kts | 156° |
| 2026-05-04 12:43 | 39.37059 | 23.51917 | 35782 ft | 493 kts | 156° |
| 2026-05-04 12:43 | 39.33931 | 23.53647 | 35029 ft | 497 kts | 156° |
| 2026-05-04 12:43 | 39.30738 | 23.55406 | 34355 ft | 499 kts | 156° |
| 2026-05-04 12:43 | 39.27534 | 23.57138 | 33636 ft | 499 kts | 158° |
| 2026-05-04 12:44 | 39.24338 | 23.58746 | 33277 ft | 491 kts | 159° |
| 2026-05-04 12:44 | 39.21145 | 23.60262 | 33048 ft | 481 kts | 160° |
| 2026-05-04 12:44 | 39.17989 | 23.61489 | 32910 ft | 469 kts | 168° |
| 2026-05-04 12:44 | 39.14791 | 23.62071 | 32697 ft | 459 kts | 175° |
| 2026-05-04 12:45 | 39.11674 | 23.62477 | 31531 ft | 458 kts | 174° |
| 2026-05-04 12:45 | 39.08517 | 23.62932 | 30497 ft | 452 kts | 173° |
| 2026-05-04 12:45 | 39.05476 | 23.63400 | 30040 ft | 432 kts | 173° |
| 2026-05-04 12:45 | 39.02516 | 23.63864 | 29559 ft | 427 kts | 173° |
| 2026-05-04 12:46 | 38.99584 | 23.64317 | 29137 ft | 422 kts | 173° |
| 2026-05-04 12:46 | 38.96669 | 23.64758 | 28707 ft | 418 kts | 173° |
| 2026-05-04 12:46 | 38.93792 | 23.65186 | 28295 ft | 415 kts | 173° |
| 2026-05-04 12:46 | 38.90944 | 23.65606 | 27878 ft | 412 kts | 173° |
| 2026-05-04 12:47 | 38.88109 | 23.66021 | 27506 ft | 408 kts | 173° |
| 2026-05-04 12:47 | 38.85299 | 23.66433 | 27135 ft | 405 kts | 173° |
| 2026-05-04 12:47 | 38.82511 | 23.66843 | 26769 ft | 401 kts | 173° |
| 2026-05-04 12:47 | 38.79744 | 23.67249 | 26402 ft | 398 kts | 173° |
| 2026-05-04 12:48 | 38.77068 | 23.67642 | 26044 ft | 395 kts | 173° |
| 2026-05-04 12:48 | 38.74330 | 23.68043 | 25680 ft | 391 kts | 172° |
| 2026-05-04 12:48 | 38.71616 | 23.68436 | 25299 ft | 389 kts | 172° |
| 2026-05-04 12:48 | 38.68965 | 23.68820 | 24926 ft | 385 kts | 172° |
| 2026-05-04 12:49 | 38.66338 | 23.69204 | 24557 ft | 383 kts | 172° |
| 2026-05-04 12:49 | 38.63703 | 23.69595 | 24207 ft | 379 kts | 172° |
| 2026-05-04 12:49 | 38.61085 | 23.69985 | 23839 ft | 376 kts | 172° |
| 2026-05-04 12:49 | 38.58518 | 23.70361 | 23327 ft | 375 kts | 171° |
| 2026-05-04 12:50 | 38.55897 | 23.70741 | 22870 ft | 372 kts | 171° |
| 2026-05-04 12:50 | 38.53346 | 23.71113 | 22345 ft | 371 kts | 172° |
| 2026-05-04 12:50 | 38.50797 | 23.71484 | 21940 ft | 367 kts | 172° |
| 2026-05-04 12:50 | 38.48238 | 23.71853 | 21511 ft | 364 kts | 172° |
| 2026-05-04 12:51 | 38.45757 | 23.72209 | 21117 ft | 361 kts | 172° |
| 2026-05-04 12:51 | 38.43290 | 23.72565 | 20700 ft | 357 kts | 172° |
| 2026-05-04 12:51 | 38.40832 | 23.72925 | 20312 ft | 354 kts | 172° |
| 2026-05-04 12:51 | 38.38391 | 23.73284 | 19902 ft | 352 kts | 172° |
| 2026-05-04 12:52 | 38.35969 | 23.73640 | 19502 ft | 349 kts | 172° |
| 2026-05-04 12:52 | 38.33550 | 23.73974 | 19100 ft | 347 kts | 176° |
| 2026-05-04 12:52 | 38.31159 | 23.73645 | 18700 ft | 346 kts | 193° |
| 2026-05-04 12:52 | 38.28839 | 23.72850 | 18279 ft | 345 kts | 195° |
| 2026-05-04 12:53 | 38.26524 | 23.72017 | 17796 ft | 344 kts | 195° |
| 2026-05-04 12:53 | 38.24222 | 23.71195 | 17304 ft | 344 kts | 195° |
| 2026-05-04 12:53 | 38.21951 | 23.70397 | 16854 ft | 344 kts | 195° |
| 2026-05-04 12:53 | 38.19640 | 23.69599 | 16409 ft | 343 kts | 195° |
| 2026-05-04 12:54 | 38.17331 | 23.68814 | 15989 ft | 342 kts | 195° |
| 2026-05-04 12:54 | 38.15045 | 23.68045 | 15591 ft | 341 kts | 195° |
| 2026-05-04 12:54 | 38.12778 | 23.67289 | 15191 ft | 339 kts | 195° |
| 2026-05-04 12:54 | 38.10542 | 23.66553 | 14796 ft | 337 kts | 195° |
| 2026-05-04 12:55 | 38.08238 | 23.65802 | 14357 ft | 336 kts | 195° |
| 2026-05-04 12:55 | 38.06027 | 23.65088 | 13948 ft | 336 kts | 195° |
| 2026-05-04 12:55 | 38.03755 | 23.64361 | 13384 ft | 333 kts | 195° |
| 2026-05-04 12:55 | 38.01521 | 23.63655 | 12811 ft | 330 kts | 195° |
| 2026-05-04 12:56 | 37.99305 | 23.62962 | 12275 ft | 327 kts | 195° |
| 2026-05-04 12:56 | 37.97133 | 23.62284 | 11741 ft | 324 kts | 195° |
| 2026-05-04 12:56 | 37.94925 | 23.61601 | 11224 ft | 320 kts | 195° |
| 2026-05-04 12:56 | 37.92810 | 23.60952 | 10714 ft | 317 kts | 195° |
| 2026-05-04 12:57 | 37.90694 | 23.60307 | 10293 ft | 312 kts | 195° |
| 2026-05-04 12:57 | 37.88586 | 23.59667 | 9868 ft | 305 kts | 195° |
| 2026-05-04 12:57 | 37.86496 | 23.59042 | 9359 ft | 301 kts | 195° |
| 2026-05-04 12:57 | 37.84475 | 23.58449 | 8865 ft | 298 kts | 195° |
| 2026-05-04 12:58 | 37.82452 | 23.57868 | 8368 ft | 295 kts | 195° |
| 2026-05-04 12:58 | 37.80482 | 23.57550 | 7893 ft | 295 kts | 178° |
| 2026-05-04 12:58 | 37.78514 | 23.58271 | 7428 ft | 295 kts | 152° |
| 2026-05-04 12:58 | 37.76786 | 23.59659 | 6907 ft | 295 kts | 146° |
| 2026-05-04 12:59 | 37.75102 | 23.61157 | 6412 ft | 294 kts | 145° |
| 2026-05-04 12:59 | 37.73448 | 23.62655 | 6024 ft | 293 kts | 145° |
| 2026-05-04 12:59 | 37.71807 | 23.64142 | 5694 ft | 290 kts | 142° |
| 2026-05-04 12:59 | 37.70507 | 23.66030 | 5367 ft | 285 kts | 115° |
| 2026-05-04 13:00 | 37.70016 | 23.68406 | 5038 ft | 277 kts | 89° |
| 2026-05-04 13:00 | 37.70194 | 23.70778 | 4694 ft | 271 kts | 73° |
| 2026-05-04 13:00 | 37.70862 | 23.72967 | 4437 ft | 261 kts | 57° |
| 2026-05-04 13:00 | 37.71906 | 23.74785 | 4310 ft | 247 kts | 43° |
| 2026-05-04 13:01 | 37.73153 | 23.76138 | 4183 ft | 235 kts | 33° |
| 2026-05-04 13:01 | 37.74460 | 23.77370 | 4038 ft | 225 kts | 33° |
| 2026-05-04 13:01 | 37.75651 | 23.78497 | 3921 ft | 212 kts | 33° |
| 2026-05-04 13:01 | 37.76805 | 23.79588 | 3778 ft | 201 kts | 33° |
| 2026-05-04 13:02 | 37.77920 | 23.80641 | 3487 ft | 199 kts | 33° |
| 2026-05-04 13:02 | 37.79022 | 23.81683 | 3193 ft | 196 kts | 33° |
| 2026-05-04 13:02 | 37.80054 | 23.82661 | 3111 ft | 177 kts | 33° |
| 2026-05-04 13:02 | 37.80990 | 23.83548 | 3049 ft | 161 kts | 32° |
| 2026-05-04 13:03 | 37.81876 | 23.84386 | 2927 ft | 158 kts | 33° |
| 2026-05-04 13:03 | 37.82754 | 23.85216 | 2741 ft | 154 kts | 32° |
| 2026-05-04 13:03 | 37.83579 | 23.85998 | 2568 ft | 145 kts | 33° |
| 2026-05-04 13:03 | 37.84372 | 23.86749 | 2368 ft | 140 kts | 33° |
| 2026-05-04 13:04 | 37.85147 | 23.87483 | 2173 ft | 137 kts | 33° |
| 2026-05-04 13:04 | 37.85909 | 23.88205 | 1987 ft | 137 kts | 34° |
| 2026-05-04 13:04 | 37.86667 | 23.88924 | 1798 ft | 137 kts | 31° |
| 2026-05-04 13:04 | 37.87428 | 23.89646 | 1621 ft | 137 kts | 33° |
| 2026-05-04 13:05 | 37.88193 | 23.90371 | 1424 ft | 137 kts | 32° |
| 2026-05-04 13:05 | 37.88956 | 23.91095 | 1243 ft | 136 kts | 33° |
| 2026-05-04 13:05 | 37.89714 | 23.91815 | 1047 ft | 134 kts | 36° |
| 2026-05-04 13:05 | 37.90464 | 23.92527 | 841 ft | 134 kts | 38° |
| 2026-05-04 13:06 | 37.91196 | 23.93223 | 665 ft | 132 kts | 39° |
| 2026-05-04 13:06 | 37.91937 | 23.93927 | 488 ft | 134 kts | 41° |
| 2026-05-04 13:06 | 37.92674 | 23.94625 | 324 ft | 132 kts | 40° |
| 2026-05-04 13:06 | 37.93334 | 23.95259 | 295 ft | 100 kts | 39° |
| 2026-05-04 13:07 | 37.93710 | 23.95617 | 282 ft | 40 kts | 30° |
| 2026-05-04 13:07 | 37.93918 | 23.95713 | 283 ft | 17 kts | 7° |
| 2026-05-04 13:07 | 37.93997 | 23.95727 | 292 ft | 6 kts | 7° |
| 2026-05-04 13:07 | 37.94005 | 23.95728 | 295 ft | 0 kts | 4° |
| 2026-05-04 13:08 | 37.94007 | 23.95728 | 290 ft | 1 kts | 356° |
| 2026-05-04 13:08 | 37.94010 | 23.95727 | 291 ft | 0 kts | 352° |
| 2026-05-04 13:08 | 37.94013 | 23.95725 | 291 ft | 3 kts | 346° |
| 2026-05-04 13:09 | 37.94041 | 23.95690 | 299 ft | 7 kts | 282° |
| 2026-05-04 13:09 | 37.94015 | 23.95628 | 299 ft | 11 kts | 216° |
| 2026-05-04 13:09 | 37.93935 | 23.95551 | 299 ft | 17 kts | 217° |
| 2026-05-04 13:09 | 37.93836 | 23.95453 | 301 ft | 19 kts | 217° |
| 2026-05-04 13:10 | 37.93729 | 23.95355 | 297 ft | 19 kts | 218° |
| 2026-05-04 13:10 | 37.93627 | 23.95255 | 300 ft | 18 kts | 216° |
| 2026-05-04 13:10 | 37.93529 | 23.95168 | 300 ft | 18 kts | 217° |
| 2026-05-04 13:10 | 37.93427 | 23.95069 | 302 ft | 19 kts | 216° |
| 2026-05-04 13:11 | 37.93315 | 23.94964 | 300 ft | 21 kts | 216° |
| 2026-05-04 13:11 | 37.93202 | 23.94858 | 301 ft | 20 kts | 216° |
| 2026-05-04 13:11 | 37.93105 | 23.94763 | 302 ft | 17 kts | 219° |
| 2026-05-04 13:11 | 37.93065 | 23.94680 | 304 ft | 10 kts | 277° |
| 2026-05-04 13:12 | 37.93099 | 23.94598 | 303 ft | 11 kts | 304° |
| 2026-05-04 13:12 | 37.93146 | 23.94518 | 304 ft | 10 kts | 307° |
| 2026-05-04 13:12 | 37.93160 | 23.94463 | 301 ft | 6 kts | 241° |
| 2026-05-04 13:12 | 37.93129 | 23.94430 | 302 ft | 0 kts | 218° |
| 2026-05-04 13:13 | 37.93123 | 23.94425 | 304 ft | 2 kts | 219° |
| 2026-05-04 13:13 | 37.93116 | 23.94418 | 303 ft | 1 kts | 218° |
| 2026-05-04 13:13 | 37.93116 | 23.94417 | 303 ft | 0 kts | 218° |